Time;durP1;ratioP1;P1;durP2;ratioP2;P2;SDS_P1;SDS_P2;PMS_P1;PMS_P2;Temp;Humidity;BMP_temperature;BMP_pressure;BME280_temperature;BME280_humidity;BME280_pressure;Samples;Min_cycle;Max_cycle;Signal;HPM_P1;HPM_P2
2023/01/08 00:00:23;;;;;;;32.07;30.57;;;;;;;8.08;100.00;100265.75;5014609;28;20465;-47
2023/01/08 00:02:51;;;;;;;32.30;30.70;;;;;;;8.09;100.00;100275.38;5015064;28;20429;-45
2023/01/08 00:05:18;;;;;;;32.50;31.00;;;;;;;8.09;100.00;100270.06;5014724;28;20893;-44
2023/01/08 00:07:46;;;;;;;32.30;30.70;;;;;;;8.11;100.00;100261.88;5014939;28;20439;-45
2023/01/08 00:10:14;;;;;;;32.73;31.13;;;;;;;8.12;100.00;100253.72;5014529;28;20461;-44
2023/01/08 00:12:41;;;;;;;32.77;31.27;;;;;;;8.13;100.00;100263.34;5015414;28;20984;-45
2023/01/08 00:15:11;;;;;;;32.70;31.20;;;;;;;8.14;100.00;100264.97;5014646;28;20435;-45
2023/01/08 00:17:38;;;;;;;33.63;32.10;;;;;;;8.16;100.00;100264.78;5015106;28;20437;-45
2023/01/08 00:20:07;;;;;;;32.97;31.27;;;;;;;8.15;100.00;100257.84;5014422;28;20464;-48
2023/01/08 00:22:34;;;;;;;31.80;30.30;;;;;;;8.17;100.00;100266.44;5014846;28;20463;-46
2023/01/08 00:25:02;;;;;;;31.77;30.27;;;;;;;8.18;100.00;100258.25;5014479;28;20440;-44
2023/01/08 00:27:30;;;;;;;31.87;30.43;;;;;;;8.17;100.00;100264.59;5014678;28;20456;-48
2023/01/08 00:29:57;;;;;;;31.77;30.17;;;;;;;8.15;100.00;100248.00;5014020;28;20492;-47
2023/01/08 00:32:26;;;;;;;31.80;30.40;;;;;;;8.16;100.00;100256.81;5014920;28;20480;-47
2023/01/08 00:34:55;;;;;;;32.83;31.27;;;;;;;8.17;100.00;100261.94;5014564;28;20433;-45
2023/01/08 00:37:22;;;;;;;31.60;30.20;;;;;;;8.19;100.00;100248.47;5011755;28;20425;-47
2023/01/08 00:39:50;;;;;;;33.67;32.03;;;;;;;8.17;100.00;100240.69;5006205;28;20507;-49
2023/01/08 00:42:18;;;;;;;32.13;30.50;;;;;;;8.19;100.00;100241.31;5014070;28;20437;-46
2023/01/08 00:44:45;;;;;;;31.90;30.40;;;;;;;8.19;100.00;100243.97;5014415;28;20437;-51
2023/01/08 00:47:13;;;;;;;31.90;30.10;;;;;;;8.20;100.00;100237.66;5014409;28;20459;-45
2023/01/08 00:49:42;;;;;;;31.93;30.47;;;;;;;8.20;100.00;100242.97;5014432;28;20464;-46
2023/01/08 00:52:10;;;;;;;31.80;30.40;;;;;;;8.20;100.00;100236.81;5013541;28;20519;-48
2023/01/08 00:54:37;;;;;;;32.20;30.70;;;;;;;8.19;100.00;100241.31;5013882;28;20517;-49
2023/01/08 00:57:05;;;;;;;33.00;31.47;;;;;;;8.21;100.00;100236.63;5013960;28;20437;-45
2023/01/08 00:59:33;;;;;;;33.47;31.53;;;;;;;8.19;100.00;100236.00;5014057;28;20460;-49
2023/01/08 01:02:00;;;;;;;32.37;30.80;;;;;;;8.21;100.00;100223.34;5013051;28;20461;-47
2023/01/08 01:04:28;;;;;;;32.60;31.00;;;;;;;8.18;100.00;100231.69;5013699;28;20782;-46
2023/01/08 01:06:58;;;;;;;33.57;31.77;;;;;;;8.21;100.00;100225.19;5014018;28;20441;-48
2023/01/08 01:09:25;;;;;;;31.67;30.10;;;;;;;8.22;100.00;100222.34;5013631;28;20503;-48
2023/01/08 01:11:53;;;;;;;32.50;30.90;;;;;;;8.23;100.00;100212.53;5013197;28;20983;-47
2023/01/08 01:14:21;;;;;;;32.43;30.93;;;;;;;8.24;100.00;100212.31;5013706;28;20433;-47
2023/01/08 01:16:49;;;;;;;33.03;31.43;;;;;;;8.25;100.00;100208.66;5013792;28;20441;-45
2023/01/08 01:19:17;;;;;;;31.97;30.47;;;;;;;8.25;100.00;100197.22;5013697;28;20453;-49
2023/01/08 01:21:45;;;;;;;31.40;30.00;;;;;;;8.22;100.00;100193.13;5013091;28;20457;-50
2023/01/08 01:24:15;;;;;;;32.70;31.20;;;;;;;8.24;100.00;100196.38;5013276;28;20963;-46
2023/01/08 01:26:42;;;;;;;32.67;30.97;;;;;;;8.27;100.00;100204.00;5013927;28;20436;-45
2023/01/08 01:29:10;;;;;;;32.10;30.60;;;;;;;8.28;100.00;100199.50;5013715;28;20456;-44
2023/01/08 01:31:38;;;;;;;32.40;30.80;;;;;;;8.29;100.00;100191.38;5013009;28;20485;-45
2023/01/08 01:34:05;;;;;;;33.50;31.70;;;;;;;8.30;100.00;100187.66;5013148;28;20429;-45
2023/01/08 01:36:33;;;;;;;31.73;30.30;;;;;;;8.30;100.00;100182.38;5012270;28;20439;-47
2023/01/08 01:39:01;;;;;;;32.80;31.20;;;;;;;8.32;100.00;100167.06;5003369;28;20465;-45
2023/01/08 01:41:32;;;;;;;31.53;30.10;;;;;;;8.34;100.00;100172.16;5012843;28;20982;-47
2023/01/08 01:44:21;;;;;;;32.77;31.27;;;;;;;8.34;100.00;100180.13;5013102;28;20417;-45
2023/01/08 01:46:50;;;;;;;33.20;31.60;;;;;;;8.36;100.00;100172.81;5013088;28;20437;-50
2023/01/08 01:49:22;;;;;;;32.07;30.60;;;;;;;8.36;100.00;100172.81;5013199;28;20467;-44
2023/01/08 01:51:55;;;;;;;32.50;31.10;;;;;;;8.39;100.00;100176.91;5012468;28;20477;-45
2023/01/08 01:54:23;;;;;;;33.10;31.50;;;;;;;8.41;100.00;100185.50;5012884;28;20429;-47
2023/01/08 01:56:51;;;;;;;32.63;31.13;;;;;;;8.40;100.00;100174.03;5012917;28;21012;-44
2023/01/08 01:59:19;;;;;;;32.73;31.10;;;;;;;8.40;100.00;100184.66;5012816;28;20457;-44
2023/01/08 02:01:47;;;;;;;32.47;31.00;;;;;;;8.41;100.00;100182.84;5012312;28;20457;-44
2023/01/08 02:04:16;;;;;;;33.23;31.63;;;;;;;8.43;100.00;100186.94;5012775;28;20433;-44
2023/01/08 02:06:48;;;;;;;32.70;31.13;;;;;;;8.43;100.00;100183.47;5012609;28;20429;-45
2023/01/08 02:09:23;;;;;;;33.40;31.80;;;;;;;8.45;100.00;100179.63;5013056;28;20452;-44
2023/01/08 02:14:43;;;;;;;31.40;30.00;;;;;;;8.49;100.00;100194.13;5012274;28;20503;-47
2023/01/08 02:17:16;;;;;;;31.93;30.43;;;;;;;8.48;100.00;100183.72;5012381;28;20436;-44
2023/01/08 02:19:50;;;;;;;32.33;30.73;;;;;;;8.51;100.00;100189.44;5012783;28;20813;-45
2023/01/08 02:22:35;;;;;;;33.97;32.30;;;;;;;8.50;100.00;100187.81;5012104;28;20465;-47
2023/01/08 02:25:10;;;;;;;33.13;31.13;;;;;;;8.51;100.00;100184.09;5012499;28;20429;-45
2023/01/08 02:27:44;;;;;;;33.43;31.73;;;;;;;8.53;100.00;100186.59;5012696;28;20433;-46
2023/01/08 02:30:12;;;;;;;31.20;29.80;;;;;;;8.53;100.00;100171.47;5012020;28;20456;-45
2023/01/08 02:32:42;;;;;;;32.57;31.07;;;;;;;8.56;100.00;100175.56;5012217;28;21033;-45
2023/01/08 02:35:10;;;;;;;31.63;30.13;;;;;;;8.56;100.00;100173.72;5012291;28;20440;-48
2023/01/08 02:37:39;;;;;;;32.53;31.03;;;;;;;8.56;100.00;100168.41;5009388;28;20503;-45
2023/01/08 02:40:14;;;;;;;32.63;30.93;;;;;;;8.55;100.00;100166.75;5003616;28;20511;-44
2023/01/08 02:42:50;;;;;;;30.43;29.03;;;;;;;8.53;100.00;100171.47;5012476;28;20425;-46
2023/01/08 02:45:35;;;;;;;32.20;30.43;;;;;;;8.51;100.00;100152.22;5011859;28;20435;-44
2023/01/08 02:48:09;;;;;;;31.87;30.27;;;;;;;8.49;100.00;100145.47;5012258;28;20843;-47
2023/01/08 02:50:40;;;;;;;32.50;30.70;;;;;;;8.45;100.00;100149.56;5011382;28;20461;-48
2023/01/08 02:53:13;;;;;;;32.20;30.60;;;;;;;8.41;100.00;100146.47;5012093;28;20476;-45
2023/01/08 02:55:43;;;;;;;32.60;31.00;;;;;;;8.38;100.00;100130.09;5011784;28;20451;-44
2023/01/08 02:58:14;;;;;;;32.80;31.30;;;;;;;8.34;100.00;100129.66;5011783;28;20436;-45
2023/01/08 03:00:44;;;;;;;33.27;31.67;;;;;;;8.29;100.00;100132.09;5011613;28;20480;-46
2023/01/08 03:03:16;;;;;;;32.50;31.00;;;;;;;8.23;100.00;100127.53;5012228;28;20834;-44
2023/01/08 03:05:48;;;;;;;32.07;30.57;;;;;;;8.18;100.00;100122.78;5011817;28;20476;-46
2023/01/08 03:08:18;;;;;;;32.80;31.20;;;;;;;8.13;100.00;100125.22;5011718;28;20433;-44
2023/01/08 03:10:49;;;;;;;33.10;31.50;;;;;;;8.06;100.00;100123.56;5011390;28;20465;-45
2023/01/08 03:13:24;;;;;;;33.13;31.43;;;;;;;8.02;100.00;100117.00;5011946;28;20473;-44
2023/01/08 03:15:56;;;;;;;32.50;30.90;;;;;;;7.98;100.00;100118.38;5011753;28;20436;-44
2023/01/08 03:18:28;;;;;;;32.17;30.67;;;;;;;7.95;100.00;100127.56;5012110;28;20748;-45
2023/01/08 03:20:56;;;;;;;32.57;30.97;;;;;;;7.90;100.00;100132.66;5010821;28;20487;-44
2023/01/08 03:23:26;;;;;;;33.97;32.37;;;;;;;7.88;100.00;100132.03;5012022;28;20429;-44
2023/01/08 03:25:54;;;;;;;32.53;31.07;;;;;;;7.86;100.00;100122.59;5011480;28;20452;-46
2023/01/08 03:28:29;;;;;;;32.80;31.20;;;;;;;7.84;100.00;100117.50;5002289;28;20936;-44
2023/01/08 03:30:59;;;;;;;33.00;31.30;;;;;;;7.81;100.00;100107.25;5013051;28;20463;-46
2023/01/08 03:33:30;;;;;;;32.93;31.23;;;;;;;7.80;100.00;100117.06;5015450;28;20539;-44
2023/01/08 03:36:00;;;;;;;33.10;31.50;;;;;;;7.79;100.00;100111.97;5015611;28;20436;-44
2023/01/08 03:38:31;;;;;;;33.37;31.77;;;;;;;7.77;100.00;100106.00;5007304;28;20430;-44
2023/01/08 03:41:04;;;;;;;33.00;31.40;;;;;;;7.76;100.00;100115.78;5012961;28;20503;-44
2023/01/08 03:43:34;;;;;;;33.20;31.60;;;;;;;7.74;100.00;100119.66;5015350;28;20990;-45
2023/01/08 03:46:05;;;;;;;32.67;31.03;;;;;;;7.73;100.00;100123.34;5015261;28;20439;-45
2023/01/08 03:48:35;;;;;;;33.47;31.77;;;;;;;7.70;100.00;100129.88;5015262;28;20445;-43
2023/01/08 03:51:03;;;;;;;32.23;30.60;;;;;;;7.69;100.00;100130.03;5015119;28;20461;-44
2023/01/08 03:53:30;;;;;;;33.63;31.87;;;;;;;7.66;100.00;100127.78;5015207;28;20495;-44
2023/01/08 03:55:58;;;;;;;33.97;32.17;;;;;;;7.63;100.00;100128.97;5014907;28;20548;-43
2023/01/08 03:58:26;;;;;;;33.10;31.50;;;;;;;7.61;100.00;100130.19;5015045;28;20436;-44
2023/01/08 04:00:55;;;;;;;33.80;32.00;;;;;;;7.59;100.00;100134.84;5014802;28;20843;-46
2023/01/08 04:03:23;;;;;;;33.63;32.00;;;;;;;7.57;100.00;100144.84;5015175;28;20425;-43
2023/01/08 04:05:51;;;;;;;34.10;32.20;;;;;;;7.55;100.00;100145.06;5014821;28;20466;-47
2023/01/08 04:08:19;;;;;;;35.37;33.07;;;;;;;7.54;100.00;100146.06;5014886;28;20508;-44
2023/01/08 04:10:46;;;;;;;35.00;33.10;;;;;;;7.54;100.00;100129.31;5014361;28;20461;-43
2023/01/08 04:13:14;;;;;;;33.27;31.67;;;;;;;7.56;100.00;100130.75;5015060;28;20563;-43
2023/01/08 04:15:47;;;;;;;35.90;34.10;;;;;;;7.58;100.00;100128.75;5014786;28;20463;-49
2023/01/08 04:18:16;;;;;;;34.10;32.40;;;;;;;7.60;100.00;100123.22;5014914;28;20468;-47
2023/01/08 04:20:45;;;;;;;34.47;32.67;;;;;;;7.60;100.00;100123.22;5014015;28;20772;-43
2023/01/08 04:23:12;;;;;;;35.20;33.03;;;;;;;7.60;100.00;100121.41;5014577;28;20806;-48
2023/01/08 04:25:40;;;;;;;35.77;33.73;;;;;;;7.58;100.00;100117.31;5014621;28;20444;-46
2023/01/08 04:28:08;;;;;;;33.73;32.03;;;;;;;7.56;100.00;100111.34;5014773;28;20843;-47
2023/01/08 04:30:36;;;;;;;34.33;32.53;;;;;;;7.54;100.00;100113.38;5014235;28;20866;-48
2023/01/08 04:33:04;;;;;;;35.40;33.40;;;;;;;7.52;100.00;100110.94;5014514;28;20484;-45
2023/01/08 04:35:33;;;;;;;34.20;32.50;;;;;;;7.50;100.00;100114.78;5014102;28;20799;-47
2023/01/08 04:38:01;;;;;;;34.10;32.20;;;;;;;7.49;100.00;100121.09;5009607;28;20524;-46
2023/01/08 04:40:29;;;;;;;34.60;32.80;;;;;;;7.48;100.00;100122.09;5007605;28;20467;-48
2023/01/08 04:42:56;;;;;;;34.77;32.97;;;;;;;7.45;100.00;100111.88;5014473;28;20433;-46
2023/01/08 04:45:24;;;;;;;33.90;32.10;;;;;;;7.44;100.00;100110.22;5014099;28;20850;-47
2023/01/08 04:47:56;;;;;;;34.70;32.80;;;;;;;7.43;100.00;100113.91;5014110;28;20447;-47
2023/01/08 04:50:23;;;;;;;34.20;32.50;;;;;;;7.42;100.00;100110.44;5013801;28;20461;-47
2023/01/08 04:52:52;;;;;;;34.97;33.20;;;;;;;7.39;100.00;100099.38;5014272;28;20432;-45
2023/01/08 04:55:20;;;;;;;34.37;32.60;;;;;;;7.40;100.00;100090.41;5013967;28;20444;-48
2023/01/08 04:57:47;;;;;;;35.30;33.40;;;;;;;7.41;100.00;100098.19;5014230;28;20439;-48
2023/01/08 05:00:16;;;;;;;34.67;32.47;;;;;;;7.44;100.00;100100.44;5013746;28;20807;-44
2023/01/08 05:02:43;;;;;;;35.50;33.30;;;;;;;7.47;100.00;100108.03;5013851;28;20428;-44
2023/01/08 05:05:11;;;;;;;33.90;32.00;;;;;;;7.51;100.00;100111.13;5013994;28;20992;-44
2023/01/08 05:07:39;;;;;;;34.10;32.30;;;;;;;7.56;100.00;100116.66;5014173;28;20528;-47
2023/01/08 05:10:10;;;;;;;34.70;33.00;;;;;;;7.60;100.00;100107.31;5013444;28;20455;-46
2023/01/08 05:12:37;;;;;;;34.93;33.03;;;;;;;7.66;100.00;100106.53;5013916;28;20973;-47
2023/01/08 05:15:06;;;;;;;34.37;32.43;;;;;;;7.70;100.00;100102.50;5013492;28;20479;-44
2023/01/08 05:17:33;;;;;;;35.10;33.27;;;;;;;7.74;100.00;100112.53;5013854;28;20437;-47
2023/01/08 05:20:01;;;;;;;33.73;31.97;;;;;;;7.78;100.00;100105.00;5013283;28;20456;-45
2023/01/08 05:22:29;;;;;;;35.43;33.37;;;;;;;7.82;100.00;100102.78;5013729;28;20433;-47
2023/01/08 05:24:57;;;;;;;33.77;32.07;;;;;;;7.80;100.00;100090.50;5013341;28;20429;-45
2023/01/08 05:27:28;;;;;;;34.40;32.60;;;;;;;7.78;100.00;100079.28;5013812;28;20433;-46
2023/01/08 05:29:55;;;;;;;34.83;33.03;;;;;;;7.76;100.00;100085.81;5012921;28;20445;-46
2023/01/08 05:32:23;;;;;;;34.60;32.63;;;;;;;7.71;100.00;100081.06;5013581;28;20452;-49
2023/01/08 05:34:51;;;;;;;35.40;33.60;;;;;;;7.70;100.00;100081.25;5013335;28;20479;-45
2023/01/08 05:37:18;;;;;;;35.50;33.57;;;;;;;7.66;100.00;100082.66;5010291;28;20923;-46
2023/01/08 05:39:46;;;;;;;36.07;34.20;;;;;;;7.60;100.00;100076.28;5005100;28;20484;-44
2023/01/08 05:42:14;;;;;;;35.00;33.30;;;;;;;7.56;100.00;100087.47;5012764;28;20541;-46
2023/01/08 05:44:43;;;;;;;33.97;32.07;;;;;;;7.48;100.00;100103.53;5013373;28;20432;-46
2023/01/08 05:47:10;;;;;;;35.73;33.53;;;;;;;7.42;100.00;100105.13;5013296;28;20429;-45
2023/01/08 05:49:38;;;;;;;35.13;33.23;;;;;;;7.38;100.00;100097.75;5012914;28;20468;-44
2023/01/08 05:52:07;;;;;;;34.97;33.13;;;;;;;7.36;100.00;100095.28;5010751;28;20461;-45
2023/01/08 05:54:34;;;;;;;36.90;34.70;;;;;;;7.34;100.00;100104.44;5012707;28;20473;-44
2023/01/08 05:57:02;;;;;;;36.73;34.73;;;;;;;7.31;100.00;100104.84;5012898;28;20448;-44
2023/01/08 05:59:30;;;;;;;36.10;33.80;;;;;;;7.30;100.00;100111.13;5012972;28;20449;-45
2023/01/08 06:01:59;;;;;;;36.57;34.50;;;;;;;7.29;100.00;100098.91;4995736;28;20461;-44
2023/01/08 06:04:26;;;;;;;38.80;36.40;;;;;;;7.27;100.00;100096.44;4990918;28;20422;-47
2023/01/08 06:06:54;;;;;;;36.53;34.53;;;;;;;7.27;100.00;100093.78;5000266;28;20461;-45
2023/01/08 06:09:22;;;;;;;36.03;33.93;;;;;;;7.27;100.00;100092.94;5012509;28;20484;-45
2023/01/08 06:11:50;;;;;;;36.03;34.03;;;;;;;7.27;100.00;100098.25;5011868;28;20555;-45
2023/01/08 06:14:17;;;;;;;36.80;34.87;;;;;;;7.29;100.00;100094.41;5012636;28;20473;-43
2023/01/08 06:16:45;;;;;;;37.70;35.47;;;;;;;7.30;100.00;100079.31;5012310;28;20433;-45
2023/01/08 06:19:14;;;;;;;35.40;33.60;;;;;;;7.30;100.00;100087.25;5012060;28;20556;-46
2023/01/08 06:21:42;;;;;;;36.67;34.57;;;;;;;7.31;100.00;100088.91;5011850;28;20523;-43
2023/01/08 06:24:10;;;;;;;36.27;34.20;;;;;;;7.30;100.00;100096.06;5011902;28;20428;-45
2023/01/08 06:26:37;;;;;;;36.07;34.13;;;;;;;7.30;100.00;100084.63;5012274;28;20437;-46
2023/01/08 06:29:05;;;;;;;36.13;34.03;;;;;;;7.30;100.00;100090.75;5012392;28;20480;-44
2023/01/08 06:31:33;;;;;;;34.63;32.63;;;;;;;7.29;100.00;100083.00;5011320;28;20465;-44
2023/01/08 06:34:01;;;;;;;34.53;32.77;;;;;;;7.29;100.00;100085.66;5011012;28;20524;-46
2023/01/08 06:36:30;;;;;;;34.13;32.40;;;;;;;7.30;100.00;100082.78;5011785;28;20441;-43
2023/01/08 06:38:58;;;;;;;35.90;33.97;;;;;;;7.31;100.00;100083.63;5001661;28;20461;-43
2023/01/08 06:41:25;;;;;;;35.37;33.30;;;;;;;7.33;100.00;100086.88;5011798;28;20886;-44
2023/01/08 06:43:53;;;;;;;34.73;32.50;;;;;;;7.34;100.00;100085.88;5012055;28;20429;-47
2023/01/08 06:46:20;;;;;;;33.83;32.13;;;;;;;7.37;100.00;100090.81;5012101;28;20843;-43
2023/01/08 06:48:48;;;;;;;33.80;31.90;;;;;;;7.40;100.00;100087.78;5011402;28;20464;-43
2023/01/08 06:51:16;;;;;;;34.50;32.50;;;;;;;7.43;100.00;100085.56;5011463;28;20878;-43
2023/01/08 06:53:47;;;;;;;34.40;32.50;;;;;;;7.43;100.00;100088.22;5011927;28;20440;-46
2023/01/08 06:56:15;;;;;;;33.97;32.10;;;;;;;7.46;100.00;100089.66;5011640;28;20536;-45
2023/01/08 06:58:43;;;;;;;34.50;32.50;;;;;;;7.46;100.00;100093.13;5011947;28;20456;-47
2023/01/08 07:01:13;;;;;;;34.00;32.10;;;;;;;7.48;100.00;100092.94;5011738;28;20858;-46
2023/01/08 07:03:41;;;;;;;33.97;32.10;;;;;;;7.49;100.00;100094.56;5011070;28;20795;-45
2023/01/08 07:06:14;;;;;;;34.20;32.20;;;;;;;7.50;100.00;100090.91;5011597;28;20465;-48
2023/01/08 07:08:42;;;;;;;35.67;33.67;;;;;;;7.49;100.00;100086.63;5011078;28;20448;-50
2023/01/08 07:11:11;;;;;;;36.30;34.23;;;;;;;7.48;100.00;100085.78;5010792;28;20465;-47
2023/01/08 07:13:39;;;;;;;35.63;33.50;;;;;;;7.48;100.00;100088.44;5011108;28;20530;-44
2023/01/08 07:16:08;;;;;;;37.40;35.03;;;;;;;7.53;100.00;100093.16;5011446;28;20829;-44
2023/01/08 07:18:37;;;;;;;35.90;33.60;;;;;;;7.53;100.00;100090.50;5011626;28;20969;-43
2023/01/08 07:21:06;;;;;;;36.23;34.13;;;;;;;7.54;100.00;100086.84;5011414;28;20838;-43
2023/01/08 07:23:34;;;;;;;34.77;32.90;;;;;;;7.56;100.00;100082.16;5011837;28;20935;-44
2023/01/08 07:26:03;;;;;;;36.07;33.97;;;;;;;7.57;100.00;100091.78;4999276;28;20457;-44
2023/01/08 07:28:32;;;;;;;35.67;33.60;;;;;;;7.57;100.00;100082.00;5006099;28;20424;-43
2023/01/08 07:31:03;;;;;;;37.43;35.13;;;;;;;7.59;100.00;100079.13;5011236;28;20464;-44
2023/01/08 07:33:31;;;;;;;38.20;35.73;;;;;;;7.62;100.00;100084.88;5011753;28;20433;-43
2023/01/08 07:35:59;;;;;;;36.57;34.40;;;;;;;7.64;100.00;100077.56;5011427;28;20468;-43
2023/01/08 07:38:27;;;;;;;37.73;35.63;;;;;;;7.68;100.00;100072.66;5003633;28;20472;-44
2023/01/08 07:40:57;;;;;;;38.43;36.03;;;;;;;7.71;100.00;100070.44;4989894;28;20461;-44
2023/01/08 07:43:25;;;;;;;37.10;34.90;;;;;;;7.74;100.00;100072.72;4991739;28;20520;-44
2023/01/08 07:45:54;;;;;;;38.00;35.47;;;;;;;7.78;100.00;100079.28;4991719;28;20441;-45
2023/01/08 07:48:21;;;;;;;37.83;35.50;;;;;;;7.80;100.00;100074.59;4991889;28;20596;-44
2023/01/08 07:50:49;;;;;;;36.50;34.30;;;;;;;7.84;100.00;100074.19;4991377;28;21061;-46
2023/01/08 07:53:17;;;;;;;38.30;36.00;;;;;;;7.87;100.00;100077.28;4991335;28;20434;-45
2023/01/08 07:55:45;;;;;;;37.93;35.80;;;;;;;7.88;100.00;100072.81;4991474;28;20474;-45
2023/01/08 07:58:14;;;;;;;37.87;35.67;;;;;;;7.89;100.00;100069.94;4991756;28;20437;-46
2023/01/08 08:00:42;;;;;;;40.63;37.93;;;;;;;7.91;100.00;100067.94;4991358;28;20476;-46
2023/01/08 08:03:11;;;;;;;38.03;35.63;;;;;;;7.93;100.00;100073.03;4991899;28;20434;-44
2023/01/08 08:05:39;;;;;;;36.53;34.43;;;;;;;7.93;100.00;100076.50;4991570;28;20994;-46
2023/01/08 08:08:10;;;;;;;34.93;33.07;;;;;;;7.91;100.00;100075.91;4991188;28;20437;-43
2023/01/08 08:10:40;;;;;;;34.63;32.63;;;;;;;7.91;100.00;100065.28;4991013;28;20462;-44
2023/01/08 08:13:08;;;;;;;35.60;33.50;;;;;;;7.89;100.00;100064.63;4991650;28;20438;-46
2023/01/08 08:15:37;;;;;;;36.03;33.70;;;;;;;7.89;100.00;100055.84;4994262;28;20902;-42
2023/01/08 08:18:06;;;;;;;35.10;33.00;;;;;;;7.88;100.00;100063.00;4995387;28;20472;-43
2023/01/08 08:20:35;;;;;;;34.33;32.50;;;;;;;7.87;100.00;100058.72;4994431;28;20464;-43
2023/01/08 08:23:05;;;;;;;35.27;33.07;;;;;;;7.88;100.00;100049.75;4994702;28;20449;-44
2023/01/08 08:25:32;;;;;;;35.70;33.70;;;;;;;7.88;100.00;100057.69;4994776;28;20437;-44
2023/01/08 08:28:01;;;;;;;35.30;33.37;;;;;;;7.89;100.00;100051.34;4995021;28;20808;-43
2023/01/08 08:30:31;;;;;;;35.50;33.50;;;;;;;7.90;100.00;100052.19;4994422;28;20469;-44
2023/01/08 08:33:02;;;;;;;35.63;33.63;;;;;;;7.90;100.00;100047.69;4994879;28;20441;-44
2023/01/08 08:35:31;;;;;;;35.53;33.37;;;;;;;7.92;100.00;100043.00;4994617;28;20480;-44
2023/01/08 08:38:00;;;;;;;35.07;33.07;;;;;;;7.94;100.00;100045.47;5002130;28;21022;-43
2023/01/08 08:40:29;;;;;;;34.63;32.63;;;;;;;7.97;100.00;100050.41;5007837;28;20457;-50
2023/01/08 08:42:57;;;;;;;34.80;32.80;;;;;;;7.98;100.00;100046.69;5013724;28;20443;-44
2023/01/08 08:45:25;;;;;;;36.03;33.93;;;;;;;7.98;100.00;100044.88;5013964;28;20437;-44
2023/01/08 08:47:53;;;;;;;34.10;32.20;;;;;;;8.00;100.00;100053.47;5013987;28;20437;-44
2023/01/08 08:50:21;;;;;;;34.10;32.30;;;;;;;8.01;100.00;100051.63;5013982;28;20457;-45
2023/01/08 08:52:49;;;;;;;33.47;31.60;;;;;;;8.01;100.00;100044.47;5013842;28;20432;-43
2023/01/08 08:55:19;;;;;;;35.20;32.93;;;;;;;8.04;100.00;100044.09;5013724;28;20469;-44
2023/01/08 08:57:48;;;;;;;34.30;32.20;;;;;;;8.07;100.00;100048.19;5013808;28;20433;-46
2023/01/08 09:00:16;;;;;;;34.57;32.57;;;;;;;8.07;100.00;100053.50;5013339;28;20457;-45
2023/01/08 09:02:44;;;;;;;34.67;32.67;;;;;;;8.06;100.00;100047.38;5014014;28;20531;-46
2023/01/08 09:05:12;;;;;;;33.60;31.70;;;;;;;8.10;100.00;100051.25;5013258;28;20425;-46
2023/01/08 09:07:40;;;;;;;34.40;32.10;;;;;;;8.10;100.00;100051.25;5013809;28;20429;-45
2023/01/08 09:10:09;;;;;;;34.07;31.70;;;;;;;8.11;100.00;100058.22;5013549;28;20449;-46
2023/01/08 09:12:38;;;;;;;34.80;32.80;;;;;;;8.13;100.00;100060.66;5013769;28;20557;-45
2023/01/08 09:15:06;;;;;;;34.37;32.17;;;;;;;8.14;100.00;100067.63;5013708;28;20429;-45
2023/01/08 09:17:35;;;;;;;33.57;31.67;;;;;;;8.14;100.00;100060.50;5013709;28;20437;-47
2023/01/08 09:20:03;;;;;;;32.60;30.80;;;;;;;8.14;100.00;100062.31;5013199;28;21061;-47
2023/01/08 09:22:31;;;;;;;32.50;30.57;;;;;;;8.15;100.00;100059.44;5010361;28;20488;-43
2023/01/08 09:24:59;;;;;;;34.53;32.63;;;;;;;8.18;100.00;100066.22;5004796;28;20429;-43
2023/01/08 09:27:27;;;;;;;32.83;30.70;;;;;;;8.19;100.00;100068.66;5012843;28;20429;-44
2023/01/08 09:29:56;;;;;;;33.83;31.83;;;;;;;8.21;100.00;100065.84;5012987;28;20469;-43
2023/01/08 09:32:23;;;;;;;35.80;33.60;;;;;;;8.25;100.00;100059.09;5013529;28;20433;-44
2023/01/08 09:34:51;;;;;;;33.40;31.60;;;;;;;8.26;100.00;100061.56;5013431;28;20468;-44
2023/01/08 09:37:19;;;;;;;35.30;33.20;;;;;;;8.27;100.00;100062.38;5010486;28;20469;-43
2023/01/08 09:39:46;;;;;;;36.47;34.20;;;;;;;8.26;100.00;100058.91;5004968;28;20967;-45
2023/01/08 09:42:24;;;;;;;34.80;32.80;;;;;;;8.31;100.00;100058.34;5013167;28;21001;-43
2023/01/08 09:44:55;;;;;;;35.87;33.57;;;;;;;8.36;100.00;100055.09;5000816;28;20467;-44
2023/01/08 09:47:29;;;;;;;33.90;31.90;;;;;;;8.38;100.00;100061.84;4987443;28;20790;-46
2023/01/08 09:50:01;;;;;;;36.87;34.50;;;;;;;8.42;100.00;100064.94;4991380;28;20994;-44
2023/01/08 09:52:31;;;;;;;36.87;34.60;;;;;;;8.48;100.00;100053.50;4991797;28;20860;-44
2023/01/08 09:55:00;;;;;;;36.77;34.37;;;;;;;8.53;100.00;100059.03;5002305;28;20441;-44
2023/01/08 09:57:29;;;;;;;35.67;33.30;;;;;;;8.56;100.00;100056.81;5008395;28;20484;-44
2023/01/08 09:59:58;;;;;;;35.40;33.30;;;;;;;8.56;100.00;100056.81;4990297;28;20463;-45
2023/01/08 10:02:28;;;;;;;38.80;36.27;;;;;;;8.54;100.00;100061.47;4994154;28;20436;-45
2023/01/08 10:04:59;;;;;;;35.80;33.70;;;;;;;8.52;100.00;100052.06;4994027;28;20583;-46
2023/01/08 10:07:30;;;;;;;36.73;34.30;;;;;;;8.48;100.00;100056.16;4993969;28;20430;-45
2023/01/08 10:09:58;;;;;;;34.43;32.60;;;;;;;8.49;100.00;100055.94;5009965;28;20471;-44
2023/01/08 10:12:28;;;;;;;34.17;32.17;;;;;;;8.51;100.00;100053.09;5010683;28;20946;-44
2023/01/08 10:15:00;;;;;;;34.47;32.30;;;;;;;8.57;100.00;100039.03;5010345;28;20433;-44
2023/01/08 10:17:34;;;;;;;35.43;33.23;;;;;;;8.65;100.00;100047.63;5010233;28;20472;-46
2023/01/08 10:20:02;;;;;;;34.33;32.43;;;;;;;8.69;100.00;100048.03;5009518;28;20453;-48
2023/01/08 10:22:33;;;;;;;34.93;32.93;;;;;;;8.69;100.00;100048.84;5011145;28;20433;-44
2023/01/08 10:25:07;;;;;;;35.27;32.97;;;;;;;8.72;100.00;100051.09;4985401;28;21223;-44
2023/01/08 10:27:45;;;;;;;35.50;33.40;;;;;;;8.75;100.00;100044.59;5010113;28;20464;-46
2023/01/08 10:30:17;;;;;;;34.87;32.70;;;;;;;8.76;100.00;100041.72;5008354;28;21045;-46
2023/01/08 10:32:52;;;;;;;35.60;33.47;;;;;;;8.80;100.00;100036.81;4991205;28;20963;-44
2023/01/08 10:35:24;;;;;;;34.00;32.00;;;;;;;8.82;100.00;100032.09;4990043;28;21168;-47
2023/01/08 10:37:52;;;;;;;34.10;32.10;;;;;;;8.82;100.00;100034.75;4994885;28;20499;-46
2023/01/08 10:40:29;;;;;;;34.10;31.90;;;;;;;8.86;100.00;100031.50;4993633;28;20472;-48
2023/01/08 10:43:05;;;;;;;37.13;34.50;;;;;;;8.86;100.00;100031.50;4990730;28;20436;-45
2023/01/08 10:45:33;;;;;;;35.43;33.03;;;;;;;8.92;100.00;100026.41;4989877;28;20469;-46
2023/01/08 10:48:07;;;;;;;34.00;32.10;;;;;;;8.96;100.00;100017.78;4989916;28;20438;-44
2023/01/08 10:50:35;;;;;;;35.20;32.97;;;;;;;9.04;100.00;100011.47;4966902;28;20454;-47
2023/01/08 10:53:04;;;;;;;35.50;33.17;;;;;;;9.12;100.00;100005.94;5002320;28;20521;-44
2023/01/08 10:55:34;;;;;;;35.87;33.77;;;;;;;9.25;100.00;99996.13;5010100;28;20444;-49
2023/01/08 10:58:04;;;;;;;38.27;35.57;;;;;;;9.33;100.00;99995.09;5009576;28;20472;-46
2023/01/08 11:00:34;;;;;;;34.70;32.77;;;;;;;9.38;100.00;99989.97;4996063;28;20534;-47
2023/01/08 11:03:06;;;;;;;36.07;33.87;;;;;;;9.41;100.00;99985.03;4968878;28;20486;-44
2023/01/08 11:05:35;;;;;;;35.97;33.67;;;;;;;9.50;100.00;99987.50;4972904;28;20527;-45
2023/01/08 11:08:07;;;;;;;35.70;33.60;;;;;;;9.64;100.00;99981.94;4972431;28;20434;-44
2023/01/08 11:10:36;;;;;;;35.43;33.43;;;;;;;9.67;100.00;99983.38;4972850;28;20454;-44
2023/01/08 11:13:07;;;;;;;33.67;31.87;;;;;;;9.73;100.00;99993.19;4981234;28;20466;-44
2023/01/08 11:15:38;;;;;;;34.40;32.67;;;;;;;9.73;100.00;99998.50;4984482;28;20427;-46
2023/01/08 11:18:21;;;;;;;36.23;34.23;;;;;;;9.64;100.00;99997.91;4983801;28;20886;-45
2023/01/08 11:20:49;;;;;;;34.83;32.30;;;;;;;9.58;100.00;99985.44;4983597;28;20453;-45